Alexandria, Alabama
Current Conditions -  °F | °C
As of 12:11 AM on Sunday 21 Dec 2014 (Local Time) from KANB Reporting Station
Haze Haze  
Wind Chill: 43°   Ceiling: 1400
Heat Index: 45°   Visibility: 6mi
Dew Point: 42°   Wind: 5mph
Humidity: 90%   Direction: 60°ENE
Pressure: 30.2"   Gusts: NA
Location:  33.77°N, 85.89°W
Report Text: KANB 210611Z AUTO 06004KT 6SM BR BKN014 OVC037 07/06 A3020 RMK AO2 T00720056
Loading
Personal Weather Stations






























Interactive Weather Map New forecast layout! Learn more

10-Day Weather Forecast

Advertisements
Track Severe Weather on mobile